sensor_id;sensor_type;location;lat;lon;timestamp;temperature;humidity
3566;DHT22;1797;51.844;7.684;2023-04-24T00:02:03;11.20;99.90
3566;DHT22;1797;51.844;7.684;2023-04-24T00:04:29;11.20;99.90
3566;DHT22;1797;51.844;7.684;2023-04-24T00:06:57;11.40;99.90
3566;DHT22;1797;51.844;7.684;2023-04-24T00:09:25;11.30;99.90
3566;DHT22;1797;51.844;7.684;2023-04-24T00:11:51;11.20;99.90
3566;DHT22;1797;51.844;7.684;2023-04-24T00:14:17;11.20;99.90
3566;DHT22;1797;51.844;7.684;2023-04-24T00:16:43;11.20;99.90
3566;DHT22;1797;51.844;7.684;2023-04-24T00:19:08;11.20;99.90
3566;DHT22;1797;51.844;7.684;2023-04-24T00:21:34;11.20;99.90
3566;DHT22;1797;51.844;7.684;2023-04-24T00:24:00;11.20;99.90
3566;DHT22;1797;51.844;7.684;2023-04-24T00:26:25;11.20;99.90
3566;DHT22;1797;51.844;7.684;2023-04-24T00:28:51;11.20;99.90
3566;DHT22;1797;51.844;7.684;2023-04-24T00:31:17;11.20;99.90
3566;DHT22;1797;51.844;7.684;2023-04-24T00:33:42;11.10;99.90
3566;DHT22;1797;51.844;7.684;2023-04-24T00:36:08;11.10;99.90
3566;DHT22;1797;51.844;7.684;2023-04-24T00:38:33;11.00;99.90
3566;DHT22;1797;51.844;7.684;2023-04-24T00:40:59;10.90;99.90
3566;DHT22;1797;51.844;7.684;2023-04-24T00:43:25;10.80;99.90
3566;DHT22;1797;51.844;7.684;2023-04-24T00:45:50;10.70;99.90
3566;DHT22;1797;51.844;7.684;2023-04-24T00:48:16;10.70;99.90
3566;DHT22;1797;51.844;7.684;2023-04-24T00:50:42;10.60;99.90
3566;DHT22;1797;51.844;7.684;2023-04-24T00:53:08;10.60;99.90
3566;DHT22;1797;51.844;7.684;2023-04-24T00:55:33;10.60;99.90
3566;DHT22;1797;51.844;7.684;2023-04-24T00:57:59;10.60;99.90
3566;DHT22;1797;51.844;7.684;2023-04-24T01:00:25;10.70;99.90
3566;DHT22;1797;51.844;7.684;2023-04-24T01:02:51;10.70;99.90
3566;DHT22;1797;51.844;7.684;2023-04-24T01:05:17;10.80;99.90
3566;DHT22;1797;51.844;7.684;2023-04-24T01:07:45;10.80;99.90
3566;DHT22;1797;51.844;7.684;2023-04-24T01:10:14;10.80;99.90
3566;DHT22;1797;51.844;7.684;2023-04-24T01:12:40;10.80;99.90
3566;DHT22;1797;51.844;7.684;2023-04-24T01:15:06;10.80;99.90
3566;DHT22;1797;51.844;7.684;2023-04-24T01:17:32;10.80;99.90
3566;DHT22;1797;51.844;7.684;2023-04-24T01:19:59;10.70;99.90
3566;DHT22;1797;51.844;7.684;2023-04-24T01:22:25;10.80;99.90
3566;DHT22;1797;51.844;7.684;2023-04-24T01:24:51;10.90;99.90
3566;DHT22;1797;51.844;7.684;2023-04-24T01:27:17;10.90;99.90
3566;DHT22;1797;51.844;7.684;2023-04-24T01:29:43;10.90;99.90
3566;DHT22;1797;51.844;7.684;2023-04-24T01:32:09;10.90;99.90
3566;DHT22;1797;51.844;7.684;2023-04-24T01:34:35;10.90;99.90
3566;DHT22;1797;51.844;7.684;2023-04-24T01:37:01;10.90;99.90
3566;DHT22;1797;51.844;7.684;2023-04-24T01:39:26;11.00;99.90
3566;DHT22;1797;51.844;7.684;2023-04-24T01:41:54;10.90;99.90
3566;DHT22;1797;51.844;7.684;2023-04-24T01:44:20;10.90;99.90
3566;DHT22;1797;51.844;7.684;2023-04-24T01:46:46;10.80;99.90
3566;DHT22;1797;51.844;7.684;2023-04-24T01:49:12;10.70;99.90
3566;DHT22;1797;51.844;7.684;2023-04-24T01:51:37;10.60;99.90
3566;DHT22;1797;51.844;7.684;2023-04-24T01:54:03;10.60;99.90
3566;DHT22;1797;51.844;7.684;2023-04-24T01:56:29;10.50;99.90
3566;DHT22;1797;51.844;7.684;2023-04-24T01:58:56;10.40;99.90
3566;DHT22;1797;51.844;7.684;2023-04-24T02:01:24;10.40;99.90
3566;DHT22;1797;51.844;7.684;2023-04-24T02:03:50;10.30;99.90
3566;DHT22;1797;51.844;7.684;2023-04-24T02:06:15;10.20;99.90
3566;DHT22;1797;51.844;7.684;2023-04-24T02:08:41;10.20;99.90
3566;DHT22;1797;51.844;7.684;2023-04-24T02:11:09;10.10;99.90
3566;DHT22;1797;51.844;7.684;2023-04-24T02:13:34;10.10;99.90
3566;DHT22;1797;51.844;7.684;2023-04-24T02:16:00;10.00;99.90
3566;DHT22;1797;51.844;7.684;2023-04-24T02:18:26;10.00;99.90
3566;DHT22;1797;51.844;7.684;2023-04-24T02:20:51;10.00;1.00
3566;DHT22;1797;51.844;7.684;2023-04-24T02:23:17;9.90;1.00
3566;DHT22;1797;51.844;7.684;2023-04-24T02:25:43;9.80;1.00
3566;DHT22;1797;51.844;7.684;2023-04-24T02:28:08;9.80;1.00
3566;DHT22;1797;51.844;7.684;2023-04-24T02:30:34;9.70;1.00
3566;DHT22;1797;51.844;7.684;2023-04-24T02:32:59;9.70;1.00
3566;DHT22;1797;51.844;7.684;2023-04-24T02:35:25;9.70;1.00
3566;DHT22;1797;51.844;7.684;2023-04-24T02:37:51;9.70;1.00
3566;DHT22;1797;51.844;7.684;2023-04-24T02:40:16;9.70;1.00
3566;DHT22;1797;51.844;7.684;2023-04-24T02:42:42;9.60;1.00
3566;DHT22;1797;51.844;7.684;2023-04-24T02:45:08;9.60;1.00
3566;DHT22;1797;51.844;7.684;2023-04-24T02:47:33;9.50;1.00
3566;DHT22;1797;51.844;7.684;2023-04-24T02:49:59;9.50;1.00
3566;DHT22;1797;51.844;7.684;2023-04-24T02:52:24;9.50;1.00
3566;DHT22;1797;51.844;7.684;2023-04-24T02:54:50;9.40;1.00
3566;DHT22;1797;51.844;7.684;2023-04-24T02:57:16;9.30;1.00
3566;DHT22;1797;51.844;7.684;2023-04-24T02:59:41;9.40;1.00
3566;DHT22;1797;51.844;7.684;2023-04-24T03:02:07;9.40;1.00
3566;DHT22;1797;51.844;7.684;2023-04-24T03:04:32;9.40;1.00
3566;DHT22;1797;51.844;7.684;2023-04-24T03:06:58;9.40;1.00
3566;DHT22;1797;51.844;7.684;2023-04-24T03:09:24;9.40;1.00
3566;DHT22;1797;51.844;7.684;2023-04-24T03:11:50;9.30;1.00
3566;DHT22;1797;51.844;7.684;2023-04-24T03:14:16;9.30;1.00
3566;DHT22;1797;51.844;7.684;2023-04-24T03:16:42;9.30;1.00
3566;DHT22;1797;51.844;7.684;2023-04-24T03:19:07;9.30;1.00
3566;DHT22;1797;51.844;7.684;2023-04-24T03:21:33;9.20;22.30
3566;DHT22;1797;51.844;7.684;2023-04-24T03:24:01;9.20;99.90
3566;DHT22;1797;51.844;7.684;2023-04-24T03:26:27;9.10;99.90
3566;DHT22;1797;51.844;7.684;2023-04-24T03:28:53;9.10;99.90
3566;DHT22;1797;51.844;7.684;2023-04-24T03:31:18;9.10;99.90
3566;DHT22;1797;51.844;7.684;2023-04-24T03:33:46;9.00;99.90
3566;DHT22;1797;51.844;7.684;2023-04-24T03:36:12;9.00;99.90
3566;DHT22;1797;51.844;7.684;2023-04-24T03:38:37;9.10;99.90
3566;DHT22;1797;51.844;7.684;2023-04-24T03:41:03;9.10;99.90
3566;DHT22;1797;51.844;7.684;2023-04-24T03:43:28;9.10;77.40
3566;DHT22;1797;51.844;7.684;2023-04-24T03:45:54;9.00;73.90
3566;DHT22;1797;51.844;7.684;2023-04-24T03:48:19;9.10;93.00
3566;DHT22;1797;51.844;7.684;2023-04-24T03:50:45;9.10;57.80
3566;DHT22;1797;51.844;7.684;2023-04-24T03:53:11;9.20;29.20
3566;DHT22;1797;51.844;7.684;2023-04-24T03:55:36;9.20;39.70
3566;DHT22;1797;51.844;7.684;2023-04-24T03:58:02;9.10;76.40
3566;DHT22;1797;51.844;7.684;2023-04-24T04:00:27;9.20;99.90
3566;DHT22;1797;51.844;7.684;2023-04-24T04:02:53;9.20;99.90
3566;DHT22;1797;51.844;7.684;2023-04-24T04:05:18;9.10;99.90
3566;DHT22;1797;51.844;7.684;2023-04-24T04:07:44;9.10;99.90
3566;DHT22;1797;51.844;7.684;2023-04-24T04:10:10;9.10;99.90
3566;DHT22;1797;51.844;7.684;2023-04-24T04:12:35;9.10;99.90
3566;DHT22;1797;51.844;7.684;2023-04-24T04:15:01;9.10;99.90
3566;DHT22;1797;51.844;7.684;2023-04-24T04:17:26;9.10;99.90
3566;DHT22;1797;51.844;7.684;2023-04-24T04:19:52;9.10;99.90
3566;DHT22;1797;51.844;7.684;2023-04-24T04:22:18;9.10;99.90
3566;DHT22;1797;51.844;7.684;2023-04-24T04:24:43;9.10;99.90
3566;DHT22;1797;51.844;7.684;2023-04-24T04:27:10;9.20;99.90
3566;DHT22;1797;51.844;7.684;2023-04-24T04:29:36;9.20;99.90
3566;DHT22;1797;51.844;7.684;2023-04-24T04:32:02;9.30;99.90
3566;DHT22;1797;51.844;7.684;2023-04-24T04:34:27;9.30;99.90
3566;DHT22;1797;51.844;7.684;2023-04-24T04:36:54;9.30;92.30
3566;DHT22;1797;51.844;7.684;2023-04-24T04:39:19;9.40;99.90
3566;DHT22;1797;51.844;7.684;2023-04-24T04:41:45;9.40;99.90
3566;DHT22;1797;51.844;7.684;2023-04-24T04:44:14;9.40;99.90
3566;DHT22;1797;51.844;7.684;2023-04-24T04:46:40;9.40;94.80
3566;DHT22;1797;51.844;7.684;2023-04-24T04:49:07;9.50;60.60
3566;DHT22;1797;51.844;7.684;2023-04-24T04:51:34;9.50;50.90
3566;DHT22;1797;51.844;7.684;2023-04-24T04:53:59;9.50;1.00
3566;DHT22;1797;51.844;7.684;2023-04-24T04:56:25;9.60;1.00
3566;DHT22;1797;51.844;7.684;2023-04-24T04:58:51;9.60;1.00
3566;DHT22;1797;51.844;7.684;2023-04-24T05:01:17;9.60;1.00
3566;DHT22;1797;51.844;7.684;2023-04-24T05:03:42;9.60;1.00
3566;DHT22;1797;51.844;7.684;2023-04-24T05:06:08;9.60;1.00
3566;DHT22;1797;51.844;7.684;2023-04-24T05:08:34;9.70;1.00
3566;DHT22;1797;51.844;7.684;2023-04-24T05:10:59;9.70;1.00
3566;DHT22;1797;51.844;7.684;2023-04-24T05:13:25;9.70;1.00
3566;DHT22;1797;51.844;7.684;2023-04-24T05:15:51;9.70;1.00
3566;DHT22;1797;51.844;7.684;2023-04-24T05:18:16;9.80;1.00
3566;DHT22;1797;51.844;7.684;2023-04-24T05:20:42;9.70;1.00
3566;DHT22;1797;51.844;7.684;2023-04-24T05:23:09;9.70;1.00
3566;DHT22;1797;51.844;7.684;2023-04-24T05:25:35;9.70;1.00
3566;DHT22;1797;51.844;7.684;2023-04-24T05:28:01;9.70;1.00
3566;DHT22;1797;51.844;7.684;2023-04-24T05:30:28;9.70;1.00
3566;DHT22;1797;51.844;7.684;2023-04-24T05:32:53;9.70;1.00
3566;DHT22;1797;51.844;7.684;2023-04-24T05:35:19;9.70;1.00
3566;DHT22;1797;51.844;7.684;2023-04-24T05:37:44;9.70;1.00
3566;DHT22;1797;51.844;7.684;2023-04-24T05:40:11;9.70;1.00
3566;DHT22;1797;51.844;7.684;2023-04-24T05:42:37;9.80;1.00
3566;DHT22;1797;51.844;7.684;2023-04-24T05:45:03;9.70;1.00
3566;DHT22;1797;51.844;7.684;2023-04-24T05:47:29;9.80;1.00
3566;DHT22;1797;51.844;7.684;2023-04-24T05:49:54;9.70;1.00
3566;DHT22;1797;51.844;7.684;2023-04-24T05:52:20;9.70;1.00
3566;DHT22;1797;51.844;7.684;2023-04-24T05:54:45;9.70;1.00
3566;DHT22;1797;51.844;7.684;2023-04-24T05:57:11;9.70;1.00
3566;DHT22;1797;51.844;7.684;2023-04-24T05:59:37;9.80;1.00
3566;DHT22;1797;51.844;7.684;2023-04-24T06:02:06;9.80;1.00
3566;DHT22;1797;51.844;7.684;2023-04-24T06:04:32;9.90;1.00
3566;DHT22;1797;51.844;7.684;2023-04-24T06:06:58;9.90;1.00
3566;DHT22;1797;51.844;7.684;2023-04-24T06:09:25;9.90;1.00
3566;DHT22;1797;51.844;7.684;2023-04-24T06:11:51;9.90;1.00
3566;DHT22;1797;51.844;7.684;2023-04-24T06:14:18;9.90;99.90
3566;DHT22;1797;51.844;7.684;2023-04-24T06:16:44;9.80;1.00
3566;DHT22;1797;51.844;7.684;2023-04-24T06:19:10;9.90;1.00
3566;DHT22;1797;51.844;7.684;2023-04-24T06:21:35;9.90;1.00
3566;DHT22;1797;51.844;7.684;2023-04-24T06:24:01;9.90;1.00
3566;DHT22;1797;51.844;7.684;2023-04-24T06:26:27;9.90;1.00
3566;DHT22;1797;51.844;7.684;2023-04-24T06:28:53;9.90;1.00
3566;DHT22;1797;51.844;7.684;2023-04-24T06:31:22;9.80;99.90
3566;DHT22;1797;51.844;7.684;2023-04-24T06:33:48;9.80;1.00
3566;DHT22;1797;51.844;7.684;2023-04-24T06:36:15;9.80;1.00
3566;DHT22;1797;51.844;7.684;2023-04-24T06:38:41;9.80;1.00
3566;DHT22;1797;51.844;7.684;2023-04-24T06:41:07;9.90;1.00
3566;DHT22;1797;51.844;7.684;2023-04-24T06:43:33;9.90;1.00
3566;DHT22;1797;51.844;7.684;2023-04-24T06:45:59;9.90;1.00
3566;DHT22;1797;51.844;7.684;2023-04-24T06:48:25;9.80;1.00
3566;DHT22;1797;51.844;7.684;2023-04-24T06:50:52;9.70;1.00
3566;DHT22;1797;51.844;7.684;2023-04-24T06:53:17;9.70;1.00
3566;DHT22;1797;51.844;7.684;2023-04-24T06:55:43;9.60;1.00
3566;DHT22;1797;51.844;7.684;2023-04-24T06:58:11;9.60;1.00
3566;DHT22;1797;51.844;7.684;2023-04-24T07:00:37;9.60;1.00
3566;DHT22;1797;51.844;7.684;2023-04-24T07:03:03;9.60;1.00
3566;DHT22;1797;51.844;7.684;2023-04-24T07:05:31;9.40;1.00
3566;DHT22;1797;51.844;7.684;2023-04-24T07:07:56;9.50;1.00
3566;DHT22;1797;51.844;7.684;2023-04-24T07:10:24;9.60;1.00
3566;DHT22;1797;51.844;7.684;2023-04-24T07:12:49;9.60;1.00
3566;DHT22;1797;51.844;7.684;2023-04-24T07:15:15;9.60;1.00
3566;DHT22;1797;51.844;7.684;2023-04-24T07:17:41;9.60;1.00
3566;DHT22;1797;51.844;7.684;2023-04-24T07:20:10;9.70;1.00
3566;DHT22;1797;51.844;7.684;2023-04-24T07:22:37;9.70;1.00
3566;DHT22;1797;51.844;7.684;2023-04-24T07:25:02;9.70;1.00
3566;DHT22;1797;51.844;7.684;2023-04-24T07:27:28;9.80;1.00
3566;DHT22;1797;51.844;7.684;2023-04-24T07:29:54;9.90;1.00
3566;DHT22;1797;51.844;7.684;2023-04-24T07:32:20;10.10;1.00
3566;DHT22;1797;51.844;7.684;2023-04-24T07:34:45;10.20;1.00
3566;DHT22;1797;51.844;7.684;2023-04-24T07:37:11;10.30;1.00
3566;DHT22;1797;51.844;7.684;2023-04-24T07:39:36;10.30;1.00
3566;DHT22;1797;51.844;7.684;2023-04-24T07:42:02;10.40;1.00
3566;DHT22;1797;51.844;7.684;2023-04-24T07:44:28;10.30;1.00
3566;DHT22;1797;51.844;7.684;2023-04-24T07:46:54;10.10;1.00
3566;DHT22;1797;51.844;7.684;2023-04-24T07:49:20;10.10;1.00
3566;DHT22;1797;51.844;7.684;2023-04-24T07:51:46;10.10;1.00
3566;DHT22;1797;51.844;7.684;2023-04-24T07:54:12;10.00;1.00
3566;DHT22;1797;51.844;7.684;2023-04-24T07:56:38;9.90;1.00
3566;DHT22;1797;51.844;7.684;2023-04-24T07:59:04;9.90;1.00
3566;DHT22;1797;51.844;7.684;2023-04-24T08:01:30;9.90;1.00
3566;DHT22;1797;51.844;7.684;2023-04-24T08:03:55;9.90;1.00
3566;DHT22;1797;51.844;7.684;2023-04-24T08:06:21;9.90;1.00
3566;DHT22;1797;51.844;7.684;2023-04-24T08:08:47;10.00;1.00
3566;DHT22;1797;51.844;7.684;2023-04-24T08:11:13;10.00;1.00
3566;DHT22;1797;51.844;7.684;2023-04-24T08:13:38;10.00;1.00
3566;DHT22;1797;51.844;7.684;2023-04-24T08:16:04;10.10;1.00
3566;DHT22;1797;51.844;7.684;2023-04-24T08:18:30;10.00;1.00
3566;DHT22;1797;51.844;7.684;2023-04-24T08:20:55;10.00;1.00
3566;DHT22;1797;51.844;7.684;2023-04-24T08:23:26;9.90;1.00
3566;DHT22;1797;51.844;7.684;2023-04-24T08:25:52;9.80;1.00
3566;DHT22;1797;51.844;7.684;2023-04-24T08:28:17;9.80;1.00
3566;DHT22;1797;51.844;7.684;2023-04-24T08:30:46;9.80;1.00
3566;DHT22;1797;51.844;7.684;2023-04-24T08:33:20;9.90;1.00
3566;DHT22;1797;51.844;7.684;2023-04-24T08:35:46;10.00;1.00
3566;DHT22;1797;51.844;7.684;2023-04-24T08:38:11;10.00;1.00
3566;DHT22;1797;51.844;7.684;2023-04-24T08:40:37;10.00;99.90
3566;DHT22;1797;51.844;7.684;2023-04-24T08:43:03;10.10;99.90
3566;DHT22;1797;51.844;7.684;2023-04-24T08:45:29;10.10;99.90
3566;DHT22;1797;51.844;7.684;2023-04-24T08:47:55;10.00;99.90
3566;DHT22;1797;51.844;7.684;2023-04-24T08:50:21;10.00;99.90
3566;DHT22;1797;51.844;7.684;2023-04-24T08:52:50;9.90;1.00
3566;DHT22;1797;51.844;7.684;2023-04-24T08:55:16;9.80;1.00
3566;DHT22;1797;51.844;7.684;2023-04-24T08:57:45;9.70;1.00
3566;DHT22;1797;51.844;7.684;2023-04-24T09:00:11;9.70;1.00
3566;DHT22;1797;51.844;7.684;2023-04-24T09:02:41;9.60;1.00
3566;DHT22;1797;51.844;7.684;2023-04-24T09:05:08;9.60;1.00
3566;DHT22;1797;51.844;7.684;2023-04-24T09:07:35;9.50;1.90
3566;DHT22;1797;51.844;7.684;2023-04-24T09:10:04;9.60;1.00
3566;DHT22;1797;51.844;7.684;2023-04-24T09:12:30;9.60;1.00
3566;DHT22;1797;51.844;7.684;2023-04-24T09:14:56;9.80;1.00
3566;DHT22;1797;51.844;7.684;2023-04-24T09:17:22;9.80;1.00
3566;DHT22;1797;51.844;7.684;2023-04-24T09:19:48;9.70;1.00
3566;DHT22;1797;51.844;7.684;2023-04-24T09:22:15;9.80;1.00
3566;DHT22;1797;51.844;7.684;2023-04-24T09:24:41;9.90;1.00
3566;DHT22;1797;51.844;7.684;2023-04-24T09:27:07;9.90;1.00
3566;DHT22;1797;51.844;7.684;2023-04-24T09:29:32;9.80;1.00
3566;DHT22;1797;51.844;7.684;2023-04-24T09:31:58;9.80;84.80
3566;DHT22;1797;51.844;7.684;2023-04-24T09:34:26;9.70;36.50
3566;DHT22;1797;51.844;7.684;2023-04-24T09:36:52;9.60;99.90
3566;DHT22;1797;51.844;7.684;2023-04-24T09:39:19;9.50;1.00
3566;DHT22;1797;51.844;7.684;2023-04-24T09:41:50;9.50;1.00
3566;DHT22;1797;51.844;7.684;2023-04-24T09:44:21;9.50;47.80
3566;DHT22;1797;51.844;7.684;2023-04-24T09:46:51;9.50;99.90
3566;DHT22;1797;51.844;7.684;2023-04-24T09:49:23;9.50;1.00
3566;DHT22;1797;51.844;7.684;2023-04-24T09:51:49;9.60;1.00
3566;DHT22;1797;51.844;7.684;2023-04-24T09:54:16;9.50;90.40
3566;DHT22;1797;51.844;7.684;2023-04-24T09:56:44;9.40;99.90
3566;DHT22;1797;51.844;7.684;2023-04-24T09:59:11;9.30;1.00
3566;DHT22;1797;51.844;7.684;2023-04-24T10:01:36;9.40;1.00
3566;DHT22;1797;51.844;7.684;2023-04-24T10:04:04;9.40;1.00
3566;DHT22;1797;51.844;7.684;2023-04-24T10:06:36;9.50;1.00
3566;DHT22;1797;51.844;7.684;2023-04-24T10:09:02;9.70;1.00
3566;DHT22;1797;51.844;7.684;2023-04-24T10:11:29;9.80;99.90
3566;DHT22;1797;51.844;7.684;2023-04-24T10:13:56;9.90;1.00
3566;DHT22;1797;51.844;7.684;2023-04-24T10:16:23;9.90;1.00
3566;DHT22;1797;51.844;7.684;2023-04-24T10:18:49;9.90;99.90
3566;DHT22;1797;51.844;7.684;2023-04-24T10:21:17;10.00;1.00
3566;DHT22;1797;51.844;7.684;2023-04-24T10:23:43;10.00;99.90
3566;DHT22;1797;51.844;7.684;2023-04-24T10:26:18;10.00;1.00
3566;DHT22;1797;51.844;7.684;2023-04-24T10:28:47;10.10;1.00
3566;DHT22;1797;51.844;7.684;2023-04-24T10:31:14;10.20;1.00
3566;DHT22;1797;51.844;7.684;2023-04-24T10:33:41;10.20;1.00
3566;DHT22;1797;51.844;7.684;2023-04-24T10:36:09;10.10;63.80
3566;DHT22;1797;51.844;7.684;2023-04-24T10:38:37;10.20;99.90
3566;DHT22;1797;51.844;7.684;2023-04-24T10:41:10;10.10;99.90
3566;DHT22;1797;51.844;7.684;2023-04-24T10:43:42;10.00;20.30
3566;DHT22;1797;51.844;7.684;2023-04-24T10:46:08;9.90;1.00
3566;DHT22;1797;51.844;7.684;2023-04-24T10:48:36;9.70;80.00
3566;DHT22;1797;51.844;7.684;2023-04-24T10:51:11;9.60;1.00
3566;DHT22;1797;51.844;7.684;2023-04-24T10:53:37;9.40;99.90
3566;DHT22;1797;51.844;7.684;2023-04-24T10:56:05;9.30;1.00
3566;DHT22;1797;51.844;7.684;2023-04-24T10:58:45;9.10;99.90
3566;DHT22;1797;51.844;7.684;2023-04-24T11:01:32;9.00;1.00
3566;DHT22;1797;51.844;7.684;2023-04-24T11:04:00;8.90;1.00
3566;DHT22;1797;51.844;7.684;2023-04-24T11:06:29;8.90;22.30
3566;DHT22;1797;51.844;7.684;2023-04-24T11:09:10;8.80;99.90
3566;DHT22;1797;51.844;7.684;2023-04-24T11:11:43;8.70;1.00
3566;DHT22;1797;51.844;7.684;2023-04-24T11:14:10;8.70;1.00
3566;DHT22;1797;51.844;7.684;2023-04-24T11:16:50;8.70;1.00
3566;DHT22;1797;51.844;7.684;2023-04-24T11:27:20;8.70;99.90
3566;DHT22;1797;51.844;7.684;2023-04-24T11:37:28;8.90;99.90
3566;DHT22;1797;51.844;7.684;2023-04-24T11:39:56;8.90;99.90
3566;DHT22;1797;51.844;7.684;2023-04-24T11:42:22;9.00;99.90
3566;DHT22;1797;51.844;7.684;2023-04-24T11:44:51;9.00;99.90
3566;DHT22;1797;51.844;7.684;2023-04-24T11:47:17;9.00;99.90
3566;DHT22;1797;51.844;7.684;2023-04-24T11:49:43;8.90;99.90
3566;DHT22;1797;51.844;7.684;2023-04-24T11:52:08;8.80;94.10
3566;DHT22;1797;51.844;7.684;2023-04-24T11:54:34;8.80;75.50
3566;DHT22;1797;51.844;7.684;2023-04-24T11:57:04;8.80;99.90
3566;DHT22;1797;51.844;7.684;2023-04-24T11:59:30;8.70;99.90
3566;DHT22;1797;51.844;7.684;2023-04-24T12:02:00;8.80;99.90
3566;DHT22;1797;51.844;7.684;2023-04-24T12:04:25;8.80;41.80
3566;DHT22;1797;51.844;7.684;2023-04-24T12:07:04;8.90;1.00
3566;DHT22;1797;51.844;7.684;2023-04-24T12:09:56;9.00;1.00
3566;DHT22;1797;51.844;7.684;2023-04-24T12:12:25;9.00;1.00
3566;DHT22;1797;51.844;7.684;2023-04-24T12:14:56;9.10;1.00
3566;DHT22;1797;51.844;7.684;2023-04-24T12:17:32;9.20;99.90
3566;DHT22;1797;51.844;7.684;2023-04-24T12:19:59;9.10;1.00
3566;DHT22;1797;51.844;7.684;2023-04-24T12:22:26;9.20;99.90
3566;DHT22;1797;51.844;7.684;2023-04-24T12:25:04;9.20;99.90
3566;DHT22;1797;51.844;7.684;2023-04-24T12:27:31;9.30;25.70
3566;DHT22;1797;51.844;7.684;2023-04-24T12:29:59;9.30;1.00
3566;DHT22;1797;51.844;7.684;2023-04-24T12:32:25;9.30;99.90
3566;DHT22;1797;51.844;7.684;2023-04-24T12:34:52;9.50;99.90
3566;DHT22;1797;51.844;7.684;2023-04-24T12:37:18;9.70;99.90
3566;DHT22;1797;51.844;7.684;2023-04-24T12:40:08;9.90;1.00
3566;DHT22;1797;51.844;7.684;2023-04-24T12:42:35;10.20;78.80
3566;DHT22;1797;51.844;7.684;2023-04-24T12:45:03;10.30;99.90
3566;DHT22;1797;51.844;7.684;2023-04-24T12:47:30;10.30;1.00
3566;DHT22;1797;51.844;7.684;2023-04-24T12:49:56;10.20;99.90
3566;DHT22;1797;51.844;7.684;2023-04-24T12:52:25;10.10;1.00
3566;DHT22;1797;51.844;7.684;2023-04-24T12:54:56;10.00;1.00
3566;DHT22;1797;51.844;7.684;2023-04-24T12:57:23;10.00;1.00
3566;DHT22;1797;51.844;7.684;2023-04-24T12:59:49;9.80;1.00
3566;DHT22;1797;51.844;7.684;2023-04-24T13:02:14;9.70;1.00
3566;DHT22;1797;51.844;7.684;2023-04-24T13:04:46;9.70;1.00
3566;DHT22;1797;51.844;7.684;2023-04-24T13:07:13;9.70;1.00
3566;DHT22;1797;51.844;7.684;2023-04-24T13:09:39;9.60;99.90
3566;DHT22;1797;51.844;7.684;2023-04-24T13:12:05;9.50;99.90
3566;DHT22;1797;51.844;7.684;2023-04-24T13:14:31;9.50;1.00
3566;DHT22;1797;51.844;7.684;2023-04-24T13:16:57;9.50;1.00
3566;DHT22;1797;51.844;7.684;2023-04-24T13:19:24;9.50;1.00
3566;DHT22;1797;51.844;7.684;2023-04-24T13:21:51;9.50;1.00
3566;DHT22;1797;51.844;7.684;2023-04-24T13:24:17;9.50;1.00
3566;DHT22;1797;51.844;7.684;2023-04-24T13:26:43;9.60;99.90
3566;DHT22;1797;51.844;7.684;2023-04-24T13:29:08;9.40;1.00
3566;DHT22;1797;51.844;7.684;2023-04-24T13:31:34;9.50;1.00
3566;DHT22;1797;51.844;7.684;2023-04-24T13:34:00;9.60;1.00
3566;DHT22;1797;51.844;7.684;2023-04-24T13:36:26;9.70;1.00
3566;DHT22;1797;51.844;7.684;2023-04-24T13:38:52;9.90;1.00
3566;DHT22;1797;51.844;7.684;2023-04-24T13:41:17;10.10;99.90
3566;DHT22;1797;51.844;7.684;2023-04-24T13:43:43;10.20;1.00
3566;DHT22;1797;51.844;7.684;2023-04-24T13:46:08;10.10;1.00
3566;DHT22;1797;51.844;7.684;2023-04-24T13:48:34;10.10;7.60
3566;DHT22;1797;51.844;7.684;2023-04-24T13:51:00;10.00;1.00
3566;DHT22;1797;51.844;7.684;2023-04-24T13:53:26;10.10;1.00
3566;DHT22;1797;51.844;7.684;2023-04-24T13:55:51;10.10;1.00
3566;DHT22;1797;51.844;7.684;2023-04-24T13:58:17;10.20;1.00
3566;DHT22;1797;51.844;7.684;2023-04-24T14:00:42;10.20;99.90
3566;DHT22;1797;51.844;7.684;2023-04-24T14:03:08;10.10;99.90
3566;DHT22;1797;51.844;7.684;2023-04-24T14:05:34;10.00;99.90
3566;DHT22;1797;51.844;7.684;2023-04-24T14:07:59;9.90;99.90
3566;DHT22;1797;51.844;7.684;2023-04-24T14:10:25;9.80;99.90
3566;DHT22;1797;51.844;7.684;2023-04-24T14:12:52;9.80;99.90
3566;DHT22;1797;51.844;7.684;2023-04-24T14:15:18;9.70;99.90
3566;DHT22;1797;51.844;7.684;2023-04-24T14:17:44;9.60;99.90
3566;DHT22;1797;51.844;7.684;2023-04-24T14:20:10;9.60;99.90
3566;DHT22;1797;51.844;7.684;2023-04-24T14:22:36;9.60;1.00
3566;DHT22;1797;51.844;7.684;2023-04-24T14:25:01;9.50;1.00
3566;DHT22;1797;51.844;7.684;2023-04-24T14:27:27;9.50;1.00
3566;DHT22;1797;51.844;7.684;2023-04-24T14:29:52;9.40;1.00
3566;DHT22;1797;51.844;7.684;2023-04-24T14:32:18;9.40;91.10
3566;DHT22;1797;51.844;7.684;2023-04-24T14:34:44;9.50;99.90
3566;DHT22;1797;51.844;7.684;2023-04-24T14:37:09;9.60;99.90
3566;DHT22;1797;51.844;7.684;2023-04-24T14:39:35;9.80;76.50
3566;DHT22;1797;51.844;7.684;2023-04-24T14:42:00;10.00;1.00
3566;DHT22;1797;51.844;7.684;2023-04-24T14:44:26;10.00;1.00
3566;DHT22;1797;51.844;7.684;2023-04-24T14:46:52;10.10;1.00
3566;DHT22;1797;51.844;7.684;2023-04-24T14:49:18;10.20;1.00
3566;DHT22;1797;51.844;7.684;2023-04-24T14:51:44;10.30;92.30
3566;DHT22;1797;51.844;7.684;2023-04-24T14:54:09;10.30;1.00
3566;DHT22;1797;51.844;7.684;2023-04-24T14:56:35;10.20;1.00
3566;DHT22;1797;51.844;7.684;2023-04-24T14:59:01;10.00;1.00
3566;DHT22;1797;51.844;7.684;2023-04-24T15:01:27;9.80;1.00
3566;DHT22;1797;51.844;7.684;2023-04-24T15:03:52;9.70;1.00
3566;DHT22;1797;51.844;7.684;2023-04-24T15:06:18;9.60;99.90
3566;DHT22;1797;51.844;7.684;2023-04-24T15:08:45;9.40;1.00
3566;DHT22;1797;51.844;7.684;2023-04-24T15:11:11;9.40;1.00
3566;DHT22;1797;51.844;7.684;2023-04-24T15:13:36;9.60;99.90
3566;DHT22;1797;51.844;7.684;2023-04-24T15:16:02;9.60;99.90
3566;DHT22;1797;51.844;7.684;2023-04-24T15:18:28;9.70;99.90
3566;DHT22;1797;51.844;7.684;2023-04-24T15:20:55;9.70;29.30
3566;DHT22;1797;51.844;7.684;2023-04-24T15:23:20;9.70;1.00
3566;DHT22;1797;51.844;7.684;2023-04-24T15:25:46;9.80;1.00
3566;DHT22;1797;51.844;7.684;2023-04-24T15:28:11;9.80;99.90
3566;DHT22;1797;51.844;7.684;2023-04-24T15:30:37;9.80;99.90
3566;DHT22;1797;51.844;7.684;2023-04-24T15:33:03;9.90;99.90
3566;DHT22;1797;51.844;7.684;2023-04-24T15:35:29;9.80;99.90
3566;DHT22;1797;51.844;7.684;2023-04-24T15:37:54;9.90;99.90
3566;DHT22;1797;51.844;7.684;2023-04-24T15:40:20;10.00;99.90
3566;DHT22;1797;51.844;7.684;2023-04-24T15:42:46;10.10;99.90
3566;DHT22;1797;51.844;7.684;2023-04-24T15:45:12;10.20;99.90
3566;DHT22;1797;51.844;7.684;2023-04-24T15:47:38;10.20;99.90
3566;DHT22;1797;51.844;7.684;2023-04-24T15:50:04;10.10;84.10
3566;DHT22;1797;51.844;7.684;2023-04-24T15:52:30;10.10;83.20
3566;DHT22;1797;51.844;7.684;2023-04-24T15:54:56;10.10;99.90
3566;DHT22;1797;51.844;7.684;2023-04-24T15:57:22;10.00;99.90
3566;DHT22;1797;51.844;7.684;2023-04-24T15:59:47;10.10;99.90
3566;DHT22;1797;51.844;7.684;2023-04-24T16:02:14;10.20;99.90
3566;DHT22;1797;51.844;7.684;2023-04-24T16:04:45;10.10;99.90
3566;DHT22;1797;51.844;7.684;2023-04-24T16:07:12;10.20;99.90
3566;DHT22;1797;51.844;7.684;2023-04-24T16:09:37;10.10;99.90
3566;DHT22;1797;51.844;7.684;2023-04-24T16:12:03;10.00;99.90
3566;DHT22;1797;51.844;7.684;2023-04-24T16:14:28;10.10;99.90
3566;DHT22;1797;51.844;7.684;2023-04-24T16:16:54;10.20;99.90
3566;DHT22;1797;51.844;7.684;2023-04-24T16:19:20;10.30;99.90
3566;DHT22;1797;51.844;7.684;2023-04-24T16:21:46;10.20;99.90
3566;DHT22;1797;51.844;7.684;2023-04-24T16:24:11;10.20;99.90
3566;DHT22;1797;51.844;7.684;2023-04-24T16:26:38;10.30;99.90
3566;DHT22;1797;51.844;7.684;2023-04-24T16:29:03;10.40;99.90
3566;DHT22;1797;51.844;7.684;2023-04-24T16:31:29;10.50;99.90